createdAt,value
2023-04-21T00:00:32.925Z,7.36
2023-04-21T00:01:37.136Z,7.35
2023-04-21T00:02:41.921Z,7.35
2023-04-21T00:03:45.775Z,7.34
2023-04-21T00:04:50.145Z,7.34
2023-04-21T00:05:54.227Z,7.34
2023-04-21T00:06:58.394Z,7.33
2023-04-21T00:08:02.674Z,7.33
2023-04-21T00:09:06.878Z,7.32
2023-04-21T00:10:11.193Z,7.31
2023-04-21T00:11:15.480Z,7.31
2023-04-21T00:12:19.673Z,7.31
2023-04-21T00:13:23.806Z,7.30
2023-04-21T00:14:28.069Z,7.29
2023-04-21T00:15:32.401Z,7.29
2023-04-21T00:16:39.653Z,7.28
2023-04-21T00:17:42.882Z,7.28
2023-04-21T00:18:47.023Z,7.28
2023-04-21T00:19:51.193Z,7.28
2023-04-21T00:20:55.557Z,7.28
2023-04-21T00:21:59.797Z,7.27
2023-04-21T00:23:03.981Z,7.27
2023-04-21T00:24:08.272Z,7.27
2023-04-21T00:25:12.482Z,7.27
2023-04-21T00:26:16.673Z,7.27
2023-04-21T00:27:20.869Z,7.27
2023-04-21T00:28:25.194Z,7.27
2023-04-21T00:29:29.385Z,7.29
2023-04-21T00:30:33.696Z,7.30
2023-04-21T00:31:37.929Z,7.30
2023-04-21T00:32:42.208Z,7.31
2023-04-21T00:33:46.399Z,7.32
2023-04-21T00:34:50.671Z,7.33
2023-04-21T00:35:54.951Z,7.33
2023-04-21T00:36:59.157Z,7.33
2023-04-21T00:38:03.556Z,7.34
2023-04-21T00:39:07.710Z,7.35
2023-04-21T00:40:25.995Z,7.36
2023-04-21T00:41:29.216Z,7.37
2023-04-21T00:42:33.461Z,7.38
2023-04-21T00:43:37.735Z,7.39
2023-04-21T00:44:41.994Z,7.40
2023-04-21T00:45:46.238Z,7.41
2023-04-21T00:46:50.591Z,7.43
2023-04-21T00:47:54.779Z,7.44
2023-04-21T00:48:58.937Z,7.45
2023-04-21T00:50:03.168Z,7.46
2023-04-21T00:51:07.351Z,7.47
2023-04-21T00:52:11.603Z,7.49
2023-04-21T00:53:15.938Z,7.49
2023-04-21T00:54:20.193Z,7.49
2023-04-21T00:55:24.348Z,7.50
2023-04-21T00:56:28.613Z,7.50
2023-04-21T00:57:32.836Z,7.50
2023-04-21T00:58:37.049Z,7.50
2023-04-21T00:59:41.248Z,7.50
2023-04-21T01:00:45.532Z,7.49
2023-04-21T01:01:49.742Z,7.49
2023-04-21T01:02:57.128Z,7.48
2023-04-21T01:04:00.447Z,7.46
2023-04-21T01:05:04.595Z,7.46
2023-04-21T01:06:08.776Z,7.45
2023-04-21T01:07:13.016Z,7.45
2023-04-21T01:08:31.233Z,7.44
2023-04-21T01:09:34.332Z,7.42
2023-04-21T01:10:38.558Z,7.41
2023-04-21T01:11:42.804Z,7.39
2023-04-21T01:12:47.062Z,7.38
2023-04-21T01:13:51.233Z,7.36
2023-04-21T01:14:55.452Z,7.33
2023-04-21T01:15:59.731Z,7.31
2023-04-21T01:17:04.098Z,7.29
2023-04-21T01:18:08.436Z,7.28
2023-04-21T01:19:12.462Z,7.26
2023-04-21T01:20:16.792Z,7.24
2023-04-21T01:21:35.055Z,7.23
2023-04-21T01:22:38.392Z,7.21
2023-04-21T01:23:42.589Z,7.19
2023-04-21T01:24:46.759Z,7.18
2023-04-21T01:25:50.948Z,7.16
2023-04-21T01:26:55.261Z,7.14
2023-04-21T01:27:59.507Z,7.12
2023-04-21T01:29:03.639Z,7.10
2023-04-21T01:30:07.971Z,7.09
2023-04-21T01:31:12.190Z,7.08
2023-04-21T01:32:16.528Z,7.06
2023-04-21T01:33:20.679Z,7.04
2023-04-21T01:34:24.837Z,7.03
2023-04-21T01:35:29.159Z,7.01
2023-04-21T01:36:33.369Z,7.00
2023-04-21T01:37:37.576Z,6.99
2023-04-21T01:38:41.923Z,6.98
2023-04-21T01:39:46.144Z,6.97
2023-04-21T01:40:50.340Z,6.96
2023-04-21T01:41:54.537Z,6.94
2023-04-21T01:42:58.787Z,6.93
2023-04-21T01:44:03.000Z,6.92
2023-04-21T01:45:07.233Z,6.91
2023-04-21T01:46:11.471Z,6.90
2023-04-21T01:47:21.733Z,6.89
2023-04-21T01:48:24.625Z,6.89
2023-04-21T01:49:28.749Z,6.88
2023-04-21T01:50:32.966Z,6.88
2023-04-21T01:51:37.254Z,6.87
2023-04-21T01:52:41.538Z,6.87
2023-04-21T01:53:45.799Z,6.86
2023-04-21T01:54:50.110Z,6.86
2023-04-21T01:55:54.386Z,6.86
2023-04-21T01:56:58.649Z,6.86
2023-04-21T01:58:02.886Z,6.87
2023-04-21T01:59:07.101Z,6.87
2023-04-21T02:00:11.321Z,6.86
2023-04-21T02:01:15.664Z,6.86
2023-04-21T02:02:19.832Z,6.86
2023-04-21T02:03:24.096Z,6.85
2023-04-21T02:04:28.220Z,6.85
2023-04-21T02:05:32.391Z,6.85
2023-04-21T02:06:36.594Z,6.85
2023-04-21T02:07:40.804Z,6.85
2023-04-21T02:08:45.072Z,6.85
2023-04-21T02:09:49.187Z,6.85
2023-04-21T02:10:53.447Z,6.85
2023-04-21T02:11:57.836Z,6.84
2023-04-21T02:13:02.071Z,6.84
2023-04-21T02:14:06.196Z,6.84
2023-04-21T02:15:10.397Z,6.84
2023-04-21T02:16:14.735Z,6.84
2023-04-21T02:17:18.845Z,6.84
2023-04-21T02:18:23.278Z,6.83
2023-04-21T02:19:27.526Z,6.83
2023-04-21T02:20:31.672Z,6.82
2023-04-21T02:21:35.979Z,6.82
2023-04-21T02:22:40.171Z,6.81
2023-04-21T02:23:44.414Z,6.80
2023-04-21T02:24:48.703Z,6.80
2023-04-21T02:25:52.975Z,6.80
2023-04-21T02:26:57.220Z,6.80
2023-04-21T02:28:01.377Z,6.79
2023-04-21T02:29:05.723Z,6.79
2023-04-21T02:30:10.015Z,6.78
2023-04-21T02:32:41.576Z,6.77
2023-04-21T02:33:45.514Z,6.76
2023-04-21T02:34:49.710Z,6.75
2023-04-21T02:35:53.950Z,6.74
2023-04-21T02:36:58.128Z,6.72
2023-04-21T02:38:02.319Z,6.71
2023-04-21T02:39:06.638Z,6.69
2023-04-21T02:40:10.859Z,6.68
2023-04-21T02:41:15.134Z,6.67
2023-04-21T02:42:19.336Z,6.67
2023-04-21T02:43:23.569Z,6.66
2023-04-21T02:44:27.884Z,6.65
2023-04-21T02:45:32.052Z,6.65
2023-04-21T02:46:36.386Z,6.64
2023-04-21T02:47:40.668Z,6.64
2023-04-21T02:48:44.865Z,6.63
2023-04-21T02:49:49.119Z,6.63
2023-04-21T02:50:53.377Z,6.63
2023-04-21T02:51:57.600Z,6.63
2023-04-21T02:53:01.755Z,6.62
2023-04-21T02:54:05.945Z,6.62
2023-04-21T02:55:10.238Z,6.61
2023-04-21T02:56:14.402Z,6.60
2023-04-21T02:57:18.684Z,6.61
2023-04-21T02:58:22.858Z,6.61
2023-04-21T02:59:27.167Z,6.60
2023-04-21T03:00:31.426Z,6.60
2023-04-21T03:01:35.640Z,6.60
2023-04-21T03:02:39.896Z,6.60
2023-04-21T03:03:44.214Z,6.61
2023-04-21T03:04:48.241Z,6.61
2023-04-21T03:05:52.569Z,6.62
2023-04-21T03:06:56.732Z,6.63
2023-04-21T03:08:01.075Z,6.64
2023-04-21T03:09:05.191Z,6.63
2023-04-21T03:10:09.496Z,6.63
2023-04-21T03:11:13.714Z,6.62
2023-04-21T03:12:17.921Z,6.62
2023-04-21T03:13:22.126Z,6.62
2023-04-21T03:14:26.350Z,6.62
2023-04-21T03:15:30.623Z,6.63
2023-04-21T03:16:34.908Z,6.64
2023-04-21T03:17:39.125Z,6.64
2023-04-21T03:18:43.233Z,6.65
2023-04-21T03:19:50.436Z,6.65
2023-04-21T03:20:53.749Z,6.66
2023-04-21T03:21:57.893Z,6.65
2023-04-21T03:23:02.124Z,6.65
2023-04-21T03:24:06.413Z,6.65
2023-04-21T03:25:10.616Z,6.65
2023-04-21T03:26:14.895Z,6.65
2023-04-21T03:27:19.060Z,6.64
2023-04-21T03:28:23.366Z,6.63
2023-04-21T03:29:27.522Z,6.61
2023-04-21T03:30:31.923Z,6.60
2023-04-21T03:31:36.163Z,6.60
2023-04-21T03:32:54.454Z,6.59
2023-04-21T03:33:57.628Z,6.58
2023-04-21T03:35:01.823Z,6.57
2023-04-21T03:36:06.078Z,6.56
2023-04-21T03:37:10.246Z,6.55
2023-04-21T03:38:14.529Z,6.54
2023-04-21T03:39:20.068Z,6.53
2023-04-21T03:40:22.917Z,6.52
2023-04-21T03:41:27.137Z,6.51
2023-04-21T03:42:31.475Z,6.49
2023-04-21T03:43:35.809Z,6.49
2023-04-21T03:44:39.897Z,6.48
2023-04-21T03:45:44.181Z,6.47
2023-04-21T03:46:48.300Z,6.46
2023-04-21T03:47:52.677Z,6.44
2023-04-21T03:48:56.776Z,6.43
2023-04-21T03:50:01.120Z,6.41
2023-04-21T03:51:05.363Z,6.39
2023-04-21T03:52:09.619Z,6.38
2023-04-21T03:53:13.814Z,6.37
2023-04-21T03:54:18.102Z,6.36
2023-04-21T03:55:22.328Z,6.36
2023-04-21T03:56:26.498Z,6.34
2023-04-21T03:57:30.806Z,6.33
2023-04-21T03:58:35.077Z,6.31
2023-04-21T03:59:39.216Z,6.30
2023-04-21T04:00:43.502Z,6.28
2023-04-21T04:01:47.664Z,6.27
2023-04-21T04:02:52.097Z,6.25
2023-04-21T04:03:56.326Z,6.24
2023-04-21T04:05:00.423Z,6.23
2023-04-21T04:06:04.679Z,6.21
2023-04-21T04:07:08.950Z,6.20
2023-04-21T04:08:13.182Z,6.18
2023-04-21T04:09:17.439Z,6.16
2023-04-21T04:10:21.520Z,6.16
2023-04-21T04:11:25.825Z,6.15
2023-04-21T04:12:30.144Z,6.15
2023-04-21T04:13:34.313Z,6.14
2023-04-21T04:14:38.598Z,6.13
2023-04-21T04:15:42.851Z,6.13
2023-04-21T04:16:46.971Z,6.13
2023-04-21T04:17:51.213Z,6.12
2023-04-21T04:18:55.406Z,6.12
2023-04-21T04:19:59.708Z,6.11
2023-04-21T04:21:03.914Z,6.11
2023-04-21T04:22:08.121Z,6.11
2023-04-21T04:23:12.370Z,6.12
2023-04-21T04:24:16.595Z,6.12
2023-04-21T04:25:20.896Z,6.13
2023-04-21T04:26:25.170Z,6.14
2023-04-21T04:27:29.503Z,6.15
2023-04-21T04:28:33.650Z,6.16
2023-04-21T04:29:37.817Z,6.17
2023-04-21T04:30:42.191Z,6.18
2023-04-21T04:31:46.359Z,6.19
2023-04-21T04:32:50.608Z,6.21
2023-04-21T04:33:55.783Z,6.22
2023-04-21T04:34:59.094Z,6.25
2023-04-21T04:36:03.411Z,6.27
2023-04-21T04:37:07.601Z,6.29
2023-04-21T04:38:11.818Z,6.31
2023-04-21T04:39:22.147Z,6.34
2023-04-21T04:40:25.036Z,6.36
2023-04-21T04:41:29.228Z,6.38
2023-04-21T04:42:33.655Z,6.40
2023-04-21T04:43:37.642Z,6.43
2023-04-21T04:44:41.922Z,6.46
2023-04-21T04:45:46.196Z,6.48
2023-04-21T04:46:50.471Z,6.51
2023-04-21T04:47:54.627Z,6.54
2023-04-21T04:48:58.908Z,6.57
2023-04-21T04:50:06.240Z,6.60
2023-04-21T04:51:09.576Z,6.63
2023-04-21T04:52:13.703Z,6.65
2023-04-21T04:53:17.871Z,6.68
2023-04-21T04:54:22.196Z,6.70
2023-04-21T04:55:26.331Z,6.73
2023-04-21T04:56:30.590Z,6.75
2023-04-21T04:57:34.897Z,6.77
2023-04-21T04:58:39.137Z,6.80
2023-04-21T04:59:43.450Z,6.83
2023-04-21T05:00:47.629Z,6.85
2023-04-21T05:01:52.058Z,6.88
2023-04-21T05:02:56.250Z,6.90
2023-04-21T05:04:00.647Z,6.94
2023-04-21T05:05:04.765Z,6.96
2023-04-21T05:06:08.887Z,6.99
2023-04-21T05:07:13.089Z,7.02
2023-04-21T05:08:18.227Z,7.04
2023-04-21T05:09:21.598Z,7.07
2023-04-21T05:10:25.829Z,7.10
2023-04-21T05:11:30.039Z,7.13
2023-04-21T05:12:34.309Z,7.16
2023-04-21T05:13:40.087Z,7.19
2023-04-21T05:14:42.684Z,7.22
2023-04-21T05:16:00.888Z,7.25
2023-04-21T05:17:04.126Z,7.29
2023-04-21T05:18:08.222Z,7.33
2023-04-21T05:19:12.377Z,7.37
2023-04-21T05:20:16.626Z,7.41
2023-04-21T05:21:26.959Z,7.44
2023-04-21T05:22:29.748Z,7.48
2023-04-21T05:23:33.948Z,7.51
2023-04-21T05:24:38.230Z,7.54
2023-04-21T05:25:42.509Z,7.58
2023-04-21T05:26:46.782Z,7.61
2023-04-21T05:27:51.022Z,7.65
2023-04-21T05:28:55.223Z,7.68
2023-04-21T05:29:59.504Z,7.72
2023-04-21T05:31:03.676Z,7.76
2023-04-21T05:32:08.040Z,7.80
2023-04-21T05:33:12.256Z,7.84
2023-04-21T05:34:16.411Z,7.87
2023-04-21T05:35:23.638Z,7.91
2023-04-21T05:36:29.959Z,7.95
2023-04-21T05:37:33.233Z,7.99
2023-04-21T05:38:37.440Z,8.03
2023-04-21T05:39:41.782Z,8.07
2023-04-21T05:40:45.953Z,8.11
2023-04-21T05:41:50.272Z,8.15
2023-04-21T05:42:54.533Z,8.18
2023-04-21T05:43:58.722Z,8.23
2023-04-21T05:45:03.056Z,8.28
2023-04-21T05:46:07.247Z,8.32
2023-04-21T05:47:11.506Z,8.37
2023-04-21T05:48:15.745Z,8.41
2023-04-21T05:49:20.006Z,8.45
2023-04-21T05:50:24.267Z,8.49
2023-04-21T05:51:28.507Z,8.53
2023-04-21T05:52:32.687Z,8.58
2023-04-21T05:53:36.982Z,8.63
2023-04-21T05:54:41.258Z,8.71
2023-04-21T05:55:45.678Z,8.78
2023-04-21T05:56:49.854Z,8.86
2023-04-21T05:57:54.140Z,8.94
2023-04-21T05:58:58.443Z,9.02
2023-04-21T06:00:02.701Z,9.09
2023-04-21T06:01:06.983Z,9.18
2023-04-21T06:02:11.353Z,9.24
2023-04-21T06:03:15.727Z,9.31
2023-04-21T06:04:20.205Z,9.38
2023-04-21T06:05:24.092Z,9.43
2023-04-21T06:06:28.284Z,9.47
2023-04-21T06:07:32.619Z,9.51
2023-04-21T06:08:36.913Z,9.52
2023-04-21T06:09:41.171Z,9.54
2023-04-21T06:10:45.371Z,9.57
2023-04-21T06:11:49.689Z,9.61
2023-04-21T06:12:53.921Z,9.65
2023-04-21T06:13:58.257Z,9.69
2023-04-21T06:15:02.535Z,9.75
2023-04-21T06:16:06.984Z,9.84
2023-04-21T06:17:11.228Z,9.91
2023-04-21T06:18:15.565Z,9.96
2023-04-21T06:19:19.737Z,10.02
2023-04-21T06:20:23.918Z,10.09
2023-04-21T06:21:28.262Z,10.18
2023-04-21T06:22:32.595Z,10.28
2023-04-21T06:23:36.869Z,10.36
2023-04-21T06:24:41.097Z,10.47
2023-04-21T06:25:45.383Z,10.57
2023-04-21T06:26:49.739Z,10.67
2023-04-21T06:27:54.045Z,10.74
2023-04-21T06:28:58.474Z,10.78
2023-04-21T06:30:02.587Z,10.81
2023-04-21T06:31:09.008Z,10.83
2023-04-21T06:32:11.233Z,10.83
2023-04-21T06:33:15.473Z,10.83
2023-04-21T06:34:20.257Z,10.81
2023-04-21T06:35:24.133Z,10.80
2023-04-21T06:36:28.386Z,10.80
2023-04-21T06:37:32.542Z,10.80
2023-04-21T06:38:36.721Z,10.82
2023-04-21T06:39:41.045Z,10.83
2023-04-21T06:40:45.397Z,10.84
2023-04-21T06:41:49.673Z,10.83
2023-04-21T06:42:53.946Z,10.84
2023-04-21T06:43:58.315Z,10.85
2023-04-21T06:45:02.509Z,10.86
2023-04-21T06:46:06.743Z,10.89
2023-04-21T06:47:11.132Z,10.91
2023-04-21T06:48:15.309Z,10.93
2023-04-21T06:49:19.849Z,10.95
2023-04-21T06:50:23.820Z,10.98
2023-04-21T06:51:28.151Z,10.98
2023-04-21T06:52:32.370Z,11.02
2023-04-21T06:53:36.712Z,11.05
2023-04-21T06:54:41.037Z,11.09
2023-04-21T06:55:45.302Z,11.14
2023-04-21T06:56:49.560Z,11.20
2023-04-21T06:57:53.868Z,11.26
2023-04-21T06:59:12.147Z,11.32
2023-04-21T07:00:15.372Z,11.39
2023-04-21T07:01:19.626Z,11.46
2023-04-21T07:02:23.886Z,11.51
2023-04-21T07:03:28.141Z,11.56
2023-04-21T07:04:32.595Z,11.60
2023-04-21T07:05:36.679Z,11.64
2023-04-21T07:06:40.978Z,11.66
2023-04-21T07:07:45.279Z,11.69
2023-04-21T07:08:49.529Z,11.70
2023-04-21T07:09:53.784Z,11.72
2023-04-21T07:10:58.117Z,11.75
2023-04-21T07:12:02.437Z,11.76
2023-04-21T07:13:08.128Z,11.78
2023-04-21T07:14:11.091Z,11.83
2023-04-21T07:15:15.321Z,11.88
2023-04-21T07:16:19.615Z,11.94
2023-04-21T07:17:23.984Z,11.97
2023-04-21T07:18:28.187Z,12.00
2023-04-21T07:19:32.571Z,12.03
2023-04-21T07:20:50.901Z,12.04
2023-04-21T07:21:53.916Z,12.03
2023-04-21T07:22:58.116Z,12.06
2023-04-21T07:24:02.495Z,12.10
2023-04-21T07:25:06.699Z,12.13
2023-04-21T07:26:10.931Z,12.18
2023-04-21T07:27:15.334Z,12.23
2023-04-21T07:28:33.673Z,12.27
2023-04-21T07:29:36.880Z,12.30
2023-04-21T07:30:41.070Z,12.32
2023-04-21T07:31:45.422Z,12.36
2023-04-21T07:32:49.735Z,12.40
2023-04-21T07:33:53.983Z,12.41
2023-04-21T07:34:58.278Z,12.42
2023-04-21T07:36:02.595Z,12.43
2023-04-21T07:37:06.886Z,12.43
2023-04-21T07:38:11.212Z,12.44
2023-04-21T07:39:15.473Z,12.46
2023-04-21T07:40:19.741Z,12.49
2023-04-21T07:41:24.051Z,12.54
2023-04-21T07:42:28.381Z,12.58
2023-04-21T07:43:32.669Z,12.63
2023-04-21T07:44:37.176Z,12.65
2023-04-21T07:45:41.407Z,12.69
2023-04-21T07:46:45.776Z,12.71
2023-04-21T07:49:17.716Z,12.75
2023-04-21T07:50:21.396Z,12.80
2023-04-21T07:51:25.860Z,12.83
2023-04-21T07:52:30.400Z,12.87
2023-04-21T07:53:34.260Z,12.91
2023-04-21T07:54:41.538Z,12.95
2023-04-21T07:55:44.929Z,12.99
2023-04-21T07:56:49.163Z,13.02
2023-04-21T07:57:53.494Z,13.04
2023-04-21T07:58:57.783Z,13.05
2023-04-21T08:00:02.134Z,13.08
2023-04-21T08:01:06.415Z,13.11
2023-04-21T08:02:10.898Z,13.14
2023-04-21T08:03:15.323Z,13.16
2023-04-21T08:04:19.860Z,13.18
2023-04-21T08:05:23.683Z,13.19
2023-04-21T08:06:28.109Z,13.21
2023-04-21T08:07:32.221Z,13.23
2023-04-21T08:08:36.509Z,13.28
2023-04-21T08:09:40.809Z,13.30
2023-04-21T08:10:45.072Z,13.32
2023-04-21T08:11:49.476Z,13.36
2023-04-21T08:12:53.690Z,13.38
2023-04-21T08:13:57.960Z,13.45
2023-04-21T08:15:02.249Z,13.50
2023-04-21T08:16:06.563Z,13.54
2023-04-21T08:17:10.810Z,13.57
2023-04-21T08:18:15.215Z,13.60
2023-04-21T08:19:19.710Z,13.63
2023-04-21T08:20:23.775Z,13.67
2023-04-21T08:21:30.163Z,13.72
2023-04-21T08:22:32.611Z,13.83
2023-04-21T08:23:36.700Z,13.95
2023-04-21T08:24:40.979Z,14.07
2023-04-21T08:25:45.419Z,14.22
2023-04-21T08:26:49.692Z,14.36
2023-04-21T08:27:54.003Z,14.45
2023-04-21T08:28:58.340Z,14.50
2023-04-21T08:30:02.624Z,14.52
2023-04-21T08:31:06.987Z,14.54
2023-04-21T08:32:11.270Z,14.57
2023-04-21T08:33:15.656Z,14.58
2023-04-21T08:34:20.985Z,14.59
2023-04-21T08:35:24.140Z,14.59
2023-04-21T08:36:29.750Z,14.55
2023-04-21T08:37:32.717Z,14.54
2023-04-21T08:38:40.099Z,14.53
2023-04-21T08:39:43.498Z,14.58
2023-04-21T08:40:47.757Z,14.59
2023-04-21T08:41:52.071Z,14.60
2023-04-21T08:42:58.167Z,14.60
2023-04-21T08:44:00.594Z,14.59
2023-04-21T08:45:04.980Z,14.60
2023-04-21T08:46:15.307Z,14.61
2023-04-21T08:47:32.319Z,14.61
2023-04-21T08:48:35.489Z,14.62
2023-04-21T08:49:39.734Z,14.64
2023-04-21T08:50:44.109Z,14.69
2023-04-21T08:51:48.435Z,14.67
2023-04-21T08:52:52.683Z,14.71
2023-04-21T08:53:57.025Z,14.75
2023-04-21T08:55:01.233Z,14.80
2023-04-21T08:56:11.219Z,14.84
2023-04-21T08:57:15.497Z,14.91
2023-04-21T08:58:14.232Z,14.95
2023-04-21T08:59:18.953Z,14.99
2023-04-21T09:00:22.975Z,15.01
2023-04-21T09:01:27.376Z,15.04
2023-04-21T09:02:31.750Z,15.05
2023-04-21T09:03:36.422Z,15.08
2023-04-21T09:04:46.704Z,15.10
2023-04-21T09:05:49.771Z,15.12
2023-04-21T09:06:53.875Z,15.14
2023-04-21T09:07:57.990Z,15.17
2023-04-21T09:09:02.319Z,15.20
2023-04-21T09:10:06.642Z,15.23
2023-04-21T09:11:10.925Z,15.26
2023-04-21T09:12:15.399Z,15.32
2023-04-21T09:13:19.713Z,15.40
2023-04-21T09:14:24.203Z,15.51
2023-04-21T09:15:28.573Z,15.64
2023-04-21T09:16:33.097Z,15.73
2023-04-21T09:17:37.302Z,15.76
2023-04-21T09:18:41.546Z,15.81
2023-04-21T09:19:46.015Z,15.87
2023-04-21T09:20:50.339Z,15.92
2023-04-21T09:21:54.670Z,15.94
2023-04-21T09:22:58.966Z,15.98
2023-04-21T09:24:03.347Z,16.00
2023-04-21T09:25:07.815Z,16.07
2023-04-21T09:26:26.114Z,16.11
2023-04-21T09:27:29.435Z,16.14
2023-04-21T09:28:33.716Z,16.16
2023-04-21T09:29:52.121Z,16.10
2023-04-21T09:30:55.546Z,16.10
2023-04-21T09:31:59.673Z,16.12
2023-04-21T09:33:13.343Z,16.10
2023-04-21T09:34:22.445Z,16.12
2023-04-21T09:35:25.549Z,16.17
2023-04-21T09:36:30.361Z,16.19
2023-04-21T09:37:50.197Z,16.23
2023-04-21T09:39:05.603Z,16.34
2023-04-21T09:40:04.048Z,16.45
2023-04-21T09:41:01.366Z,16.54
2023-04-21T09:42:05.738Z,16.65
2023-04-21T09:43:10.110Z,16.74
2023-04-21T09:44:14.495Z,16.80
2023-04-21T09:45:40.207Z,16.85
2023-04-21T09:46:36.303Z,16.85
2023-04-21T09:47:40.546Z,16.84
2023-04-21T09:48:44.919Z,16.82
2023-04-21T09:49:49.297Z,16.82
2023-04-21T09:51:24.239Z,16.80
2023-04-21T09:52:17.718Z,16.76
2023-04-21T09:53:02.485Z,16.76
2023-04-21T09:54:29.626Z,16.77
2023-04-21T09:55:24.132Z,16.77
2023-04-21T09:56:28.661Z,16.78
2023-04-21T09:57:32.850Z,16.80
2023-04-21T09:58:37.214Z,16.83
2023-04-21T09:59:41.706Z,16.84
2023-04-21T10:00:46.152Z,16.85
2023-04-21T10:01:50.413Z,16.86
2023-04-21T10:02:58.081Z,16.89
2023-04-21T10:04:01.600Z,16.91
2023-04-21T10:05:05.845Z,16.91
2023-04-21T10:06:10.267Z,16.90
2023-04-21T10:07:14.542Z,16.87
2023-04-21T10:08:18.941Z,16.89
2023-04-21T10:09:23.351Z,16.91
2023-04-21T10:10:27.746Z,16.89
2023-04-21T10:11:32.187Z,16.91
2023-04-21T10:12:36.555Z,16.94
2023-04-21T10:13:41.041Z,16.95
2023-04-21T10:14:51.400Z,16.97
2023-04-21T10:15:54.511Z,16.99
2023-04-21T10:16:59.055Z,17.02
2023-04-21T10:18:03.501Z,17.07
2023-04-21T10:19:07.848Z,17.14
2023-04-21T10:20:12.266Z,17.20
2023-04-21T10:21:16.667Z,17.26
2023-04-21T10:22:22.340Z,17.30
2023-04-21T10:23:25.491Z,17.30
2023-04-21T10:24:29.889Z,17.33
2023-04-21T10:25:34.327Z,17.33
2023-04-21T10:26:38.718Z,17.33
2023-04-21T10:27:43.094Z,17.33
2023-04-21T10:28:47.489Z,17.30
2023-04-21T10:29:56.761Z,17.31
2023-04-21T10:30:56.297Z,17.32
2023-04-21T10:32:00.974Z,17.33
2023-04-21T10:33:05.237Z,17.32
2023-04-21T10:34:09.645Z,17.25
2023-04-21T10:35:14.044Z,17.24
2023-04-21T10:36:18.426Z,17.26
2023-04-21T10:37:22.798Z,17.29
2023-04-21T10:38:27.218Z,17.31
2023-04-21T10:39:31.595Z,17.35
2023-04-21T10:40:44.388Z,17.39
2023-04-21T10:41:40.451Z,17.44
2023-04-21T10:42:44.882Z,17.47
2023-04-21T10:43:50.176Z,17.51
2023-04-21T10:44:56.762Z,17.57
2023-04-21T10:46:00.299Z,17.60
2023-04-21T10:47:04.674Z,17.64
2023-04-21T10:48:09.020Z,17.64
2023-04-21T10:49:13.387Z,17.66
2023-04-21T10:50:17.797Z,17.67
2023-04-21T10:51:22.222Z,17.70
2023-04-21T10:52:26.602Z,17.74
2023-04-21T10:53:31.016Z,17.78
2023-04-21T10:54:35.527Z,17.80
2023-04-21T10:55:39.892Z,17.80
2023-04-21T10:56:44.264Z,17.84
2023-04-21T10:57:48.670Z,17.85
2023-04-21T10:58:53.047Z,17.89
2023-04-21T10:59:57.541Z,17.94
2023-04-21T11:01:01.996Z,17.97
2023-04-21T11:02:12.444Z,17.94
2023-04-21T11:03:15.559Z,17.94
2023-04-21T11:04:20.309Z,17.98
2023-04-21T11:05:24.183Z,17.98
2023-04-21T11:06:28.574Z,17.99
2023-04-21T11:07:32.996Z,18.00
2023-04-21T11:08:38.345Z,18.01
2023-04-21T11:09:41.852Z,18.04
2023-04-21T11:10:46.275Z,18.07
2023-04-21T11:11:50.709Z,18.08
2023-04-21T11:12:55.114Z,18.10
2023-04-21T11:13:59.528Z,18.09
2023-04-21T11:15:03.945Z,18.07
2023-04-21T11:16:08.518Z,18.07
2023-04-21T11:17:12.783Z,18.07
2023-04-21T11:18:17.175Z,18.09
2023-04-21T11:19:21.595Z,18.08
2023-04-21T11:20:26.125Z,18.10
2023-04-21T11:21:30.513Z,18.13
2023-04-21T11:22:34.966Z,18.16
2023-04-21T11:23:39.386Z,18.18
2023-04-21T11:24:46.759Z,18.22
2023-04-21T11:25:50.883Z,18.18
2023-04-21T11:26:54.734Z,18.19
2023-04-21T11:27:59.208Z,18.16
2023-04-21T11:29:03.609Z,18.14
2023-04-21T11:30:08.023Z,18.17
2023-04-21T11:31:12.529Z,18.21
2023-04-21T11:32:16.833Z,18.26
2023-04-21T11:33:35.370Z,18.32
2023-04-21T11:34:52.752Z,18.37
2023-04-21T11:35:55.784Z,18.42
2023-04-21T11:37:00.117Z,18.45
2023-04-21T11:38:04.466Z,18.46
2023-04-21T11:39:08.852Z,18.49
2023-04-21T11:40:13.282Z,18.50
2023-04-21T11:41:17.725Z,18.54
2023-04-21T11:42:36.291Z,18.59
2023-04-21T11:43:39.539Z,18.64
2023-04-21T11:44:43.872Z,18.67
2023-04-21T11:45:48.324Z,18.71
2023-04-21T11:46:52.715Z,18.70
2023-04-21T11:47:57.225Z,18.77
2023-04-21T11:49:01.594Z,18.87
2023-04-21T11:50:06.037Z,18.91
2023-04-21T11:51:24.582Z,18.97
2023-04-21T11:52:27.830Z,19.06
2023-04-21T11:53:32.221Z,19.15
2023-04-21T11:54:36.665Z,19.26
2023-04-21T11:55:41.113Z,19.26
2023-04-21T11:57:01.903Z,19.35
2023-04-21T11:58:09.000Z,19.43
2023-04-21T11:59:26.249Z,19.48
2023-04-21T12:00:29.419Z,19.55
2023-04-21T12:01:33.800Z,19.62
2023-04-21T12:02:38.432Z,19.66
2023-04-21T12:03:57.000Z,19.68
2023-04-21T12:05:00.046Z,19.77
2023-04-21T12:06:04.347Z,19.83
2023-04-21T12:07:08.838Z,19.88
2023-04-21T12:08:13.152Z,19.97
2023-04-21T12:09:17.573Z,19.87
2023-04-21T12:10:22.102Z,19.88
2023-04-21T12:11:40.540Z,19.92
2023-04-21T12:12:43.660Z,19.90
2023-04-21T12:13:48.185Z,19.88
2023-04-21T12:14:52.569Z,19.92
2023-04-21T12:16:11.129Z,19.96
2023-04-21T12:17:14.291Z,19.89
2023-04-21T12:18:18.681Z,19.94
2023-04-21T12:19:26.083Z,19.98
2023-04-21T12:20:30.042Z,20.03
2023-04-21T12:21:34.034Z,20.02
2023-04-21T12:22:38.477Z,20.02
2023-04-21T12:23:42.897Z,20.03
2023-04-21T12:24:47.347Z,20.05
2023-04-21T12:25:51.782Z,20.10
2023-04-21T12:26:56.287Z,20.14
2023-04-21T12:28:00.649Z,20.16
2023-04-21T12:29:05.101Z,20.15
2023-04-21T12:30:09.610Z,20.16
2023-04-21T12:31:13.893Z,20.20
2023-04-21T12:32:18.323Z,20.23
2023-04-21T12:33:22.805Z,20.25
2023-04-21T12:34:27.165Z,20.27
2023-04-21T12:35:31.577Z,20.29
2023-04-21T12:36:36.632Z,20.35
2023-04-21T12:37:40.463Z,20.38
2023-04-21T12:38:58.911Z,20.36
2023-04-21T12:40:02.238Z,20.33
2023-04-21T12:41:06.598Z,20.36
2023-04-21T12:42:11.032Z,20.35
2023-04-21T12:43:15.437Z,20.33
2023-04-21T12:44:33.919Z,20.33
2023-04-21T12:45:37.218Z,20.31
2023-04-21T12:46:41.596Z,20.34
2023-04-21T12:47:47.138Z,20.37
2023-04-21T12:48:50.491Z,20.40
2023-04-21T12:49:54.971Z,20.36
2023-04-21T12:50:59.447Z,20.39
2023-04-21T12:52:03.864Z,20.43
2023-04-21T12:53:08.289Z,20.46
2023-04-21T12:54:12.763Z,20.48
2023-04-21T12:55:17.244Z,20.48
2023-04-21T12:56:35.724Z,20.50
2023-04-21T12:57:39.038Z,20.51
2023-04-21T12:58:43.395Z,20.53
2023-04-21T12:59:47.825Z,20.51
2023-04-21T13:00:55.320Z,20.43
2023-04-21T13:01:58.850Z,20.45
2023-04-21T13:03:03.404Z,20.48
2023-04-21T13:04:08.213Z,20.45
2023-04-21T13:05:12.117Z,20.42
2023-04-21T13:06:16.572Z,20.37
2023-04-21T13:07:20.974Z,20.31
2023-04-21T13:08:25.253Z,20.30
2023-04-21T13:09:29.865Z,20.31
2023-04-21T13:10:34.048Z,20.36
2023-04-21T13:11:52.511Z,20.41
2023-04-21T13:13:09.966Z,20.39
2023-04-21T13:14:13.093Z,20.38
2023-04-21T13:15:20.513Z,20.38
2023-04-21T13:16:24.048Z,20.36
2023-04-21T13:17:28.423Z,20.34
2023-04-21T13:18:32.919Z,20.32
2023-04-21T13:19:37.341Z,20.27
2023-04-21T13:20:41.743Z,20.23
2023-04-21T13:21:46.284Z,20.18
2023-04-21T13:22:50.736Z,20.12
2023-04-21T13:24:11.216Z,20.02
2023-04-21T13:25:12.430Z,19.87
2023-04-21T13:26:16.787Z,19.79
2023-04-21T13:27:21.191Z,19.76
2023-04-21T13:28:25.622Z,19.68
2023-04-21T13:29:30.438Z,19.58
2023-04-21T13:30:34.476Z,19.48
2023-04-21T13:31:38.956Z,19.41
2023-04-21T13:32:43.353Z,19.38
2023-04-21T13:33:47.750Z,19.37
2023-04-21T13:34:52.110Z,19.32
2023-04-21T13:35:56.577Z,19.28
2023-04-21T13:37:00.993Z,19.22
2023-04-21T13:38:05.406Z,19.19
2023-04-21T13:39:09.832Z,19.17
2023-04-21T13:40:14.239Z,19.12
2023-04-21T13:41:18.660Z,19.06
2023-04-21T13:42:23.155Z,19.02
2023-04-21T13:43:27.519Z,18.97
2023-04-21T13:44:31.936Z,18.93
2023-04-21T13:45:36.379Z,18.90
2023-04-21T13:46:40.869Z,18.86
2023-04-21T13:47:45.252Z,18.83
2023-04-21T13:48:49.650Z,18.81
2023-04-21T13:49:54.032Z,18.76
2023-04-21T13:50:58.465Z,18.72
2023-04-21T13:52:02.900Z,18.67
2023-04-21T13:53:13.351Z,18.64
2023-04-21T13:54:16.370Z,18.59
2023-04-21T13:55:20.788Z,18.58
2023-04-21T13:56:25.200Z,18.57
2023-04-21T13:57:29.528Z,18.56
2023-04-21T13:58:33.990Z,18.54
2023-04-21T13:59:38.359Z,18.54
2023-04-21T14:00:45.779Z,18.51
2023-04-21T14:01:49.459Z,18.47
2023-04-21T14:02:59.932Z,18.44
2023-04-21T14:04:03.115Z,18.42
2023-04-21T14:05:07.302Z,18.40
2023-04-21T14:06:11.706Z,18.38
2023-04-21T14:07:16.069Z,18.33
2023-04-21T14:08:20.504Z,18.31
2023-04-21T14:09:31.258Z,18.29
2023-04-21T14:10:48.076Z,18.28
2023-04-21T14:11:51.345Z,18.28